createdAt,value
2016-12-01T00:00:30.072Z,40.67
2016-12-01T00:01:02.375Z,40.96
2016-12-01T00:01:34.706Z,41.06
2016-12-01T00:02:07.029Z,40.67
2016-12-01T00:02:39.352Z,41.06
2016-12-01T00:03:11.653Z,40.96
2016-12-01T00:03:43.991Z,40.77
2016-12-01T00:04:16.339Z,40.87
2016-12-01T00:04:48.668Z,40.67
2016-12-01T00:05:20.974Z,40.77
2016-12-01T00:05:53.292Z,40.77
2016-12-01T00:06:25.620Z,40.87
2016-12-01T00:06:57.983Z,40.77
2016-12-01T00:07:30.301Z,40.87
2016-12-01T00:08:02.619Z,40.77
2016-12-01T00:08:34.925Z,40.77
2016-12-01T00:09:07.240Z,40.77
2016-12-01T00:09:39.551Z,40.87
2016-12-01T00:10:11.880Z,40.77
2016-12-01T00:10:44.195Z,40.77
2016-12-01T00:11:16.510Z,40.77
2016-12-01T00:11:48.823Z,40.77
2016-12-01T00:12:21.141Z,40.67
2016-12-01T00:12:53.454Z,41.25
2016-12-01T00:13:25.759Z,40.87
2016-12-01T00:13:58.070Z,41.25
2016-12-01T00:14:30.391Z,40.87
2016-12-01T00:15:02.711Z,40.67
2016-12-01T00:15:35.017Z,41.25
2016-12-01T00:16:07.333Z,41.25
2016-12-01T00:16:39.648Z,41.25
2016-12-01T00:17:11.958Z,40.67
2016-12-01T00:17:44.276Z,40.67
2016-12-01T00:18:16.584Z,40.87
2016-12-01T00:18:48.912Z,41.16
2016-12-01T00:19:21.229Z,41.25
2016-12-01T00:19:53.572Z,41.35
2016-12-01T00:20:25.898Z,41.16
2016-12-01T00:20:58.231Z,40.58
2016-12-01T00:21:30.567Z,40.58
2016-12-01T00:22:02.871Z,41.25
2016-12-01T00:22:35.173Z,40.67
2016-12-01T00:23:07.483Z,41.35
2016-12-01T00:23:39.795Z,40.58
2016-12-01T00:24:12.096Z,40.58
2016-12-01T00:24:44.413Z,40.48
2016-12-01T00:25:16.727Z,40.58
2016-12-01T00:25:49.040Z,40.58
2016-12-01T00:26:21.352Z,41.25
2016-12-01T00:26:53.670Z,40.48
2016-12-01T00:27:26.018Z,40.77
2016-12-01T00:27:58.325Z,40.58
2016-12-01T00:28:30.644Z,41.35
2016-12-01T00:29:02.964Z,40.58
2016-12-01T00:29:35.302Z,40.77
2016-12-01T00:30:07.615Z,41.25
2016-12-01T00:30:39.937Z,41.25
2016-12-01T00:31:12.251Z,40.67
2016-12-01T00:31:44.544Z,40.67
2016-12-01T00:32:16.877Z,40.77
2016-12-01T00:32:49.208Z,41.06
2016-12-01T00:33:21.524Z,40.96
2016-12-01T00:33:53.841Z,40.96
2016-12-01T00:34:26.160Z,41.16
2016-12-01T00:34:58.481Z,40.96
2016-12-01T00:35:30.783Z,41.06
2016-12-01T00:36:03.108Z,41.06
2016-12-01T00:36:35.430Z,41.06
2016-12-01T00:37:07.746Z,41.06
2016-12-01T00:37:40.063Z,41.06
2016-12-01T00:38:12.384Z,41.06
2016-12-01T00:38:44.688Z,41.06
2016-12-01T00:39:17.009Z,41.06
2016-12-01T00:39:49.333Z,40.96
2016-12-01T00:40:21.655Z,41.25
2016-12-01T00:40:53.979Z,41.16
2016-12-01T00:41:26.296Z,40.96
2016-12-01T00:41:58.613Z,40.87
2016-12-01T00:42:30.929Z,40.77
2016-12-01T00:43:03.252Z,40.87
2016-12-01T00:43:35.561Z,41.16
2016-12-01T00:44:07.887Z,40.77
2016-12-01T00:44:40.213Z,40.96
2016-12-01T00:45:12.525Z,40.87
2016-12-01T00:45:44.831Z,41.25
2016-12-01T00:46:17.139Z,40.77
2016-12-01T00:46:49.487Z,41.16
2016-12-01T00:47:21.802Z,40.77
2016-12-01T00:47:54.109Z,41.25
2016-12-01T00:48:26.417Z,41.06
2016-12-01T00:48:58.732Z,40.87
2016-12-01T00:49:31.041Z,40.96
2016-12-01T00:50:03.358Z,40.87
2016-12-01T00:50:35.691Z,40.96
2016-12-01T00:51:08.002Z,40.96
2016-12-01T00:51:40.316Z,40.96
2016-12-01T00:52:12.630Z,40.96
2016-12-01T00:52:44.990Z,41.06
2016-12-01T00:53:17.305Z,41.06
2016-12-01T00:53:49.613Z,41.16
2016-12-01T00:54:21.943Z,41.16
2016-12-01T00:54:54.272Z,40.96
2016-12-01T00:55:26.590Z,40.96
2016-12-01T00:55:58.903Z,41.06
2016-12-01T00:56:31.204Z,41.16
2016-12-01T00:57:03.516Z,41.06
2016-12-01T00:57:35.821Z,41.16
2016-12-01T00:58:08.127Z,41.16
2016-12-01T00:58:40.445Z,41.16
2016-12-01T00:59:12.749Z,41.06
2016-12-01T00:59:45.067Z,40.87
2016-12-01T01:00:17.367Z,41.16
2016-12-01T01:00:49.722Z,41.16
2016-12-01T01:01:22.028Z,41.06
2016-12-01T01:01:54.445Z,41.06
2016-12-01T01:02:26.746Z,41.16
2016-12-01T01:02:59.057Z,41.16
2016-12-01T01:03:31.361Z,41.06
2016-12-01T01:04:03.670Z,41.06
2016-12-01T01:04:35.977Z,41.44
2016-12-01T01:05:08.284Z,41.25
2016-12-01T01:05:40.594Z,41.25
2016-12-01T01:06:12.908Z,41.35
2016-12-01T01:06:45.496Z,41.16
2016-12-01T01:07:19.232Z,41.16
2016-12-01T01:07:52.604Z,41.25
2016-12-01T01:08:25.357Z,41.25
2016-12-01T01:08:58.964Z,41.16
2016-12-01T01:09:32.038Z,41.25
2016-12-01T01:10:05.476Z,41.16
2016-12-01T01:10:38.405Z,41.35
2016-12-01T01:11:10.722Z,41.25
2016-12-01T01:11:43.038Z,41.16
2016-12-01T01:12:15.362Z,41.16
2016-12-01T01:12:47.673Z,41.35
2016-12-01T01:13:20.001Z,41.16
2016-12-01T01:13:52.318Z,41.54
2016-12-01T01:14:24.643Z,41.35
2016-12-01T01:14:56.944Z,41.25
2016-12-01T01:15:29.280Z,41.16
2016-12-01T01:16:01.598Z,41.44
2016-12-01T01:16:33.927Z,41.35
2016-12-01T01:17:06.233Z,41.25
2016-12-01T01:17:38.555Z,41.25
2016-12-01T01:18:10.864Z,41.06
2016-12-01T01:18:43.183Z,41.54
2016-12-01T01:19:15.504Z,41.16
2016-12-01T01:19:47.820Z,41.06
2016-12-01T01:20:20.133Z,41.25
2016-12-01T01:20:52.469Z,41.25
2016-12-01T01:21:24.774Z,41.06
2016-12-01T01:21:57.098Z,41.44
2016-12-01T01:22:29.434Z,41.35
2016-12-01T01:23:01.729Z,41.06
2016-12-01T01:23:34.045Z,41.54
2016-12-01T01:24:06.371Z,41.35
2016-12-01T01:24:38.690Z,41.35
2016-12-01T01:25:11.006Z,41.25
2016-12-01T01:25:43.352Z,41.16
2016-12-01T01:26:15.676Z,41.35
2016-12-01T01:26:47.985Z,41.44
2016-12-01T01:27:20.324Z,41.35
2016-12-01T01:27:52.649Z,41.16
2016-12-01T01:28:24.969Z,41.54
2016-12-01T01:28:57.278Z,41.63
2016-12-01T01:29:29.608Z,41.44
2016-12-01T01:30:01.912Z,41.44
2016-12-01T01:30:34.241Z,41.25
2016-12-01T01:31:06.566Z,41.54
2016-12-01T01:31:38.883Z,41.44
2016-12-01T01:32:11.202Z,41.35
2016-12-01T01:32:43.520Z,41.63
2016-12-01T01:33:15.838Z,41.35
2016-12-01T01:33:48.155Z,41.35
2016-12-01T01:34:20.477Z,41.16
2016-12-01T01:34:52.838Z,41.63
2016-12-01T01:35:25.152Z,41.44
2016-12-01T01:35:57.467Z,41.35
2016-12-01T01:36:29.769Z,41.63
2016-12-01T01:37:02.080Z,41.73
2016-12-01T01:37:34.384Z,41.35
2016-12-01T01:38:06.695Z,41.35
2016-12-01T01:38:39.001Z,41.44
2016-12-01T01:39:11.305Z,41.25
2016-12-01T01:39:43.616Z,41.63
2016-12-01T01:40:15.916Z,41.25
2016-12-01T01:40:48.231Z,41.63
2016-12-01T01:41:20.540Z,41.25
2016-12-01T01:41:52.865Z,41.35
2016-12-01T01:42:25.188Z,41.25
2016-12-01T01:42:57.509Z,41.44
2016-12-01T01:43:29.819Z,41.54
2016-12-01T01:44:02.130Z,41.37
2016-12-01T01:44:34.427Z,41.44
2016-12-01T01:45:06.734Z,41.44
2016-12-01T01:45:39.032Z,41.66
2016-12-01T01:46:11.357Z,41.44
2016-12-01T01:46:43.668Z,41.83
2016-12-01T01:47:15.983Z,41.25
2016-12-01T01:47:48.286Z,41.44
2016-12-01T01:48:20.596Z,41.44
2016-12-01T01:48:52.918Z,41.44
2016-12-01T01:49:25.251Z,41.63
2016-12-01T01:49:57.563Z,41.44
2016-12-01T01:50:29.870Z,41.44
2016-12-01T01:51:02.170Z,41.63
2016-12-01T01:51:34.482Z,41.63
2016-12-01T01:52:06.788Z,41.63
2016-12-01T01:52:39.098Z,41.44
2016-12-01T01:53:11.419Z,41.37
2016-12-01T01:53:43.733Z,41.83
2016-12-01T01:54:16.035Z,41.35
2016-12-01T01:54:48.339Z,41.27
2016-12-01T01:55:20.656Z,41.35
2016-12-01T01:55:52.979Z,41.83
2016-12-01T01:56:25.287Z,41.35
2016-12-01T01:56:57.608Z,41.83
2016-12-01T01:57:29.908Z,41.35
2016-12-01T01:58:02.221Z,41.35
2016-12-01T01:58:34.566Z,41.85
2016-12-01T01:59:06.866Z,41.35
2016-12-01T01:59:39.192Z,41.35
2016-12-01T02:00:11.513Z,41.25
2016-12-01T02:00:43.828Z,41.35
2016-12-01T02:01:16.180Z,41.25
2016-12-01T02:01:48.504Z,41.63
2016-12-01T02:02:20.840Z,41.93
2016-12-01T02:02:53.141Z,41.35
2016-12-01T02:03:25.457Z,41.37
2016-12-01T02:03:57.771Z,41.83
2016-12-01T02:04:30.084Z,41.54
2016-12-01T02:05:02.434Z,41.44
2016-12-01T02:05:34.759Z,41.44
2016-12-01T02:06:07.061Z,41.83
2016-12-01T02:06:39.371Z,41.66
2016-12-01T02:07:11.719Z,41.66
2016-12-01T02:07:44.044Z,41.93
2016-12-01T02:08:16.349Z,41.83
2016-12-01T02:08:48.652Z,41.93
2016-12-01T02:09:20.999Z,41.54
2016-12-01T02:09:53.312Z,41.44
2016-12-01T02:10:25.644Z,41.63
2016-12-01T02:10:57.946Z,41.63
2016-12-01T02:11:30.270Z,41.44
2016-12-01T02:12:02.586Z,41.93
2016-12-01T02:12:34.900Z,41.54
2016-12-01T02:13:07.208Z,41.44
2016-12-01T02:13:39.531Z,41.56
2016-12-01T02:14:11.844Z,41.63
2016-12-01T02:14:44.149Z,41.66
2016-12-01T02:15:16.471Z,41.93
2016-12-01T02:15:48.799Z,41.83
2016-12-01T02:16:21.117Z,41.44
2016-12-01T02:16:53.421Z,41.35
2016-12-01T02:17:25.740Z,41.44
2016-12-01T02:17:58.038Z,41.46
2016-12-01T02:18:30.354Z,41.56
2016-12-01T02:19:02.654Z,41.54
2016-12-01T02:19:34.960Z,41.93
2016-12-01T02:20:07.286Z,41.44
2016-12-01T02:20:39.612Z,41.93
2016-12-01T02:21:11.932Z,41.93
2016-12-01T02:21:44.262Z,41.85
2016-12-01T02:22:16.577Z,41.94
2016-12-01T02:22:48.901Z,41.94
2016-12-01T02:23:21.214Z,41.46
2016-12-01T02:23:53.534Z,41.46
2016-12-01T02:24:25.851Z,41.35
2016-12-01T02:24:58.157Z,41.44
2016-12-01T02:25:30.483Z,41.94
2016-12-01T02:26:02.806Z,41.25
2016-12-01T02:26:35.119Z,41.46
2016-12-01T02:27:07.424Z,41.94
2016-12-01T02:27:39.747Z,41.37
2016-12-01T02:28:12.069Z,41.93
2016-12-01T02:28:44.378Z,41.94
2016-12-01T02:29:16.698Z,41.85
2016-12-01T02:29:49.004Z,41.85
2016-12-01T02:30:21.314Z,41.44
2016-12-01T02:30:53.633Z,41.85
2016-12-01T02:31:25.961Z,41.37
2016-12-01T02:31:58.285Z,41.75
2016-12-01T02:32:30.607Z,41.46
2016-12-01T02:33:02.928Z,41.37
2016-12-01T02:33:35.240Z,41.35
2016-12-01T02:34:07.604Z,41.37
2016-12-01T02:34:39.895Z,41.46
2016-12-01T02:35:12.198Z,41.85
2016-12-01T02:35:44.519Z,41.75
2016-12-01T02:36:16.834Z,41.85
2016-12-01T02:36:49.142Z,41.46
2016-12-01T02:37:21.475Z,41.46
2016-12-01T02:37:53.781Z,41.46
2016-12-01T02:38:26.102Z,41.75
2016-12-01T02:38:58.429Z,41.56
2016-12-01T02:39:30.741Z,41.85
2016-12-01T02:40:03.044Z,41.37
2016-12-01T02:40:35.377Z,41.75
2016-12-01T02:41:07.692Z,41.37
2016-12-01T02:41:40.017Z,41.75
2016-12-01T02:42:12.344Z,41.75
2016-12-01T02:42:44.662Z,41.66
2016-12-01T02:43:16.968Z,41.66
2016-12-01T02:43:49.281Z,41.66
2016-12-01T02:44:21.589Z,41.75
2016-12-01T02:44:53.917Z,41.56
2016-12-01T02:45:26.225Z,41.75
2016-12-01T02:45:58.534Z,41.37
2016-12-01T02:46:30.875Z,41.37
2016-12-01T02:47:03.189Z,41.66
2016-12-01T02:47:35.514Z,41.85
2016-12-01T02:48:07.810Z,41.75
2016-12-01T02:48:40.113Z,41.75
2016-12-01T02:49:12.442Z,41.46
2016-12-01T02:49:44.756Z,41.46
2016-12-01T02:50:17.077Z,41.66
2016-12-01T02:50:49.407Z,41.75
2016-12-01T02:51:21.725Z,41.66
2016-12-01T02:51:54.041Z,41.66
2016-12-01T02:52:26.367Z,41.75
2016-12-01T02:52:58.696Z,41.56
2016-12-01T02:53:31.026Z,41.46
2016-12-01T02:54:03.331Z,41.66
2016-12-01T02:54:35.651Z,41.75
2016-12-01T02:55:07.980Z,41.66
2016-12-01T02:55:40.298Z,41.66
2016-12-01T02:56:12.603Z,41.75
2016-12-01T02:56:44.909Z,41.66
2016-12-01T02:57:17.217Z,41.46
2016-12-01T02:57:49.523Z,41.66
2016-12-01T02:58:21.819Z,41.66
2016-12-01T02:58:54.128Z,41.66
2016-12-01T02:59:26.462Z,41.66
2016-12-01T02:59:58.799Z,41.56
2016-12-01T03:00:31.113Z,41.46
2016-12-01T03:01:03.423Z,41.56
2016-12-01T03:01:35.743Z,41.66
2016-12-01T03:02:08.055Z,41.66
2016-12-01T03:02:40.377Z,41.66
2016-12-01T03:03:12.691Z,41.56
2016-12-01T03:03:45.043Z,41.66
2016-12-01T03:04:17.362Z,41.66
2016-12-01T03:04:49.674Z,41.56
2016-12-01T03:05:22.026Z,41.66
2016-12-01T03:05:54.360Z,41.66
2016-12-01T03:06:26.677Z,41.46
2016-12-01T03:06:58.983Z,41.66
2016-12-01T03:07:31.296Z,41.66
2016-12-01T03:08:03.621Z,42.04
2016-12-01T03:08:35.938Z,41.56
2016-12-01T03:09:08.240Z,41.56
2016-12-01T03:09:40.564Z,41.66
2016-12-01T03:10:12.869Z,41.56
2016-12-01T03:10:45.196Z,41.66
2016-12-01T03:11:17.525Z,41.66
2016-12-01T03:11:49.840Z,41.66
2016-12-01T03:12:22.146Z,41.66
2016-12-01T03:12:54.451Z,41.46
2016-12-01T03:13:26.775Z,41.75
2016-12-01T03:13:59.081Z,41.66
2016-12-01T03:14:31.394Z,41.75
2016-12-01T03:15:03.697Z,41.56
2016-12-01T03:15:36.012Z,41.66
2016-12-01T03:16:08.311Z,41.66
2016-12-01T03:16:40.623Z,41.56
2016-12-01T03:17:12.975Z,42.13
2016-12-01T03:17:45.296Z,42.04
2016-12-01T03:18:17.639Z,41.66
2016-12-01T03:18:49.956Z,42.13
2016-12-01T03:19:22.267Z,41.75
2016-12-01T03:19:54.573Z,41.94
2016-12-01T03:20:26.892Z,41.75
2016-12-01T03:20:59.214Z,41.85
2016-12-01T03:21:31.538Z,41.75
2016-12-01T03:22:03.884Z,41.75
2016-12-01T03:22:36.180Z,41.75
2016-12-01T03:23:08.503Z,41.66
2016-12-01T03:23:40.807Z,41.85
2016-12-01T03:24:13.131Z,41.75
2016-12-01T03:24:45.437Z,41.75
2016-12-01T03:25:17.750Z,41.66
2016-12-01T03:25:50.060Z,41.75
2016-12-01T03:26:22.374Z,41.75
2016-12-01T03:26:54.685Z,41.85
2016-12-01T03:27:26.986Z,41.75
2016-12-01T03:27:59.284Z,41.75
2016-12-01T03:28:31.608Z,41.85
2016-12-01T03:29:03.933Z,41.85
2016-12-01T03:29:36.249Z,41.85
2016-12-01T03:30:08.598Z,41.75
2016-12-01T03:30:40.921Z,41.75
2016-12-01T03:31:13.241Z,41.75
2016-12-01T03:31:45.538Z,41.85
2016-12-01T03:32:17.865Z,41.75
2016-12-01T03:32:50.194Z,41.75
2016-12-01T03:33:22.520Z,41.85
2016-12-01T03:33:54.829Z,41.94
2016-12-01T03:34:27.157Z,41.85
2016-12-01T03:34:59.473Z,41.94
2016-12-01T03:35:31.787Z,41.94
2016-12-01T03:36:04.127Z,41.75
2016-12-01T03:36:36.448Z,41.94
2016-12-01T03:37:08.767Z,41.75
2016-12-01T03:37:41.086Z,41.85
2016-12-01T03:38:13.389Z,41.85
2016-12-01T03:38:45.702Z,41.94
2016-12-01T03:39:18.028Z,41.85
2016-12-01T03:39:50.352Z,41.85
2016-12-01T03:40:22.712Z,41.85
2016-12-01T03:40:55.031Z,41.94
2016-12-01T03:41:27.343Z,41.85
2016-12-01T03:41:59.667Z,41.85
2016-12-01T03:42:31.985Z,41.85
2016-12-01T03:43:04.307Z,41.85
2016-12-01T03:43:36.624Z,41.85
2016-12-01T03:44:08.936Z,41.94
2016-12-01T03:44:41.247Z,41.94
2016-12-01T03:45:13.573Z,41.94
2016-12-01T03:45:45.910Z,42.04
2016-12-01T03:46:18.957Z,41.94
2016-12-01T03:46:51.268Z,41.85
2016-12-01T03:47:23.580Z,41.85
2016-12-01T03:47:55.893Z,42.04
2016-12-01T03:48:28.227Z,41.94
2016-12-01T03:49:00.546Z,41.94
2016-12-01T03:49:32.874Z,41.94
2016-12-01T03:50:05.183Z,41.94
2016-12-01T03:50:37.495Z,41.85
2016-12-01T03:51:09.800Z,41.94
2016-12-01T03:51:42.116Z,41.85
2016-12-01T03:52:14.439Z,41.85
2016-12-01T03:52:46.769Z,41.85
2016-12-01T03:53:19.088Z,41.94
2016-12-01T03:53:51.398Z,41.85
2016-12-01T03:54:23.712Z,41.85
2016-12-01T03:54:56.047Z,41.75
2016-12-01T03:55:28.361Z,41.94
2016-12-01T03:56:00.676Z,41.85
2016-12-01T03:56:33.005Z,41.85
2016-12-01T03:57:05.326Z,41.85
2016-12-01T03:57:37.636Z,42.13
2016-12-01T03:58:09.961Z,41.85
2016-12-01T03:58:42.276Z,41.85
2016-12-01T03:59:14.590Z,41.94
2016-12-01T03:59:46.913Z,41.94
2016-12-01T04:00:19.221Z,41.85
2016-12-01T04:00:51.544Z,41.94
2016-12-01T04:01:23.852Z,42.04
2016-12-01T04:01:56.157Z,41.94
2016-12-01T04:02:28.474Z,41.94
2016-12-01T04:03:00.801Z,42.04
2016-12-01T04:03:33.111Z,42.04
2016-12-01T04:04:05.422Z,42.04
2016-12-01T04:04:37.731Z,42.13
2016-12-01T04:05:10.052Z,41.94
2016-12-01T04:05:42.360Z,41.94
2016-12-01T04:06:14.670Z,42.13
2016-12-01T04:06:47.000Z,42.04
2016-12-01T04:07:19.312Z,42.04
2016-12-01T04:07:51.638Z,42.04
2016-12-01T04:08:23.965Z,42.13
2016-12-01T04:08:56.280Z,42.04
2016-12-01T04:09:28.595Z,42.04
2016-12-01T04:10:00.930Z,42.04
2016-12-01T04:10:33.251Z,42.04
2016-12-01T04:11:05.570Z,41.94
2016-12-01T04:11:37.891Z,42.13
2016-12-01T04:12:10.199Z,42.04
2016-12-01T04:12:42.527Z,42.04
2016-12-01T04:13:14.846Z,42.04
2016-12-01T04:13:47.181Z,41.94
2016-12-01T04:14:19.491Z,42.04
2016-12-01T04:14:51.807Z,42.04
2016-12-01T04:15:24.129Z,42.04
2016-12-01T04:15:56.448Z,42.04
2016-12-01T04:16:28.768Z,42.04
2016-12-01T04:17:01.079Z,42.02
2016-12-01T04:17:33.406Z,42.04
2016-12-01T04:18:05.710Z,42.04
2016-12-01T04:18:38.020Z,42.04
2016-12-01T04:19:10.338Z,42.04
2016-12-01T04:19:42.655Z,42.13
2016-12-01T04:20:14.961Z,41.94
2016-12-01T04:20:47.287Z,42.04
2016-12-01T04:21:19.595Z,42.04
2016-12-01T04:21:51.906Z,42.04
2016-12-01T04:22:24.236Z,41.94
2016-12-01T04:22:56.559Z,42.04
2016-12-01T04:23:28.886Z,41.94
2016-12-01T04:24:01.199Z,41.94
2016-12-01T04:24:33.520Z,42.04
2016-12-01T04:25:05.841Z,42.04
2016-12-01T04:25:38.163Z,42.13
2016-12-01T04:26:10.476Z,41.94
2016-12-01T04:26:42.815Z,41.94
2016-12-01T04:27:15.137Z,42.04
2016-12-01T04:27:47.451Z,42.04
2016-12-01T04:28:19.764Z,42.23
2016-12-01T04:28:52.068Z,42.23
2016-12-01T04:29:24.402Z,42.04
2016-12-01T04:29:56.723Z,41.94
2016-12-01T04:30:29.029Z,42.23
2016-12-01T04:31:01.357Z,42.04
2016-12-01T04:31:33.658Z,42.23
2016-12-01T04:32:05.986Z,42.04
2016-12-01T04:32:38.304Z,42.13
2016-12-01T04:33:10.645Z,42.04
2016-12-01T04:33:42.959Z,42.33
2016-12-01T04:34:15.284Z,42.04
2016-12-01T04:34:47.597Z,42.13
2016-12-01T04:35:19.938Z,42.23
2016-12-01T04:35:52.264Z,42.13
2016-12-01T04:36:24.589Z,42.23
2016-12-01T04:36:56.898Z,42.23
2016-12-01T04:37:29.218Z,42.23
2016-12-01T04:38:01.533Z,41.94
2016-12-01T04:38:33.846Z,42.04
2016-12-01T04:39:06.162Z,42.02
2016-12-01T04:39:38.477Z,42.13
2016-12-01T04:40:10.792Z,42.23
2016-12-01T04:40:43.099Z,42.33
2016-12-01T04:41:15.416Z,42.23
2016-12-01T04:41:47.726Z,42.23
2016-12-01T04:42:20.047Z,42.23
2016-12-01T04:42:52.382Z,42.23
2016-12-01T04:43:24.690Z,42.33
2016-12-01T04:43:57.020Z,42.13
2016-12-01T04:44:29.327Z,42.04
2016-12-01T04:45:01.643Z,42.33
2016-12-01T04:45:33.956Z,42.23
2016-12-01T04:46:06.278Z,42.33
2016-12-01T04:46:38.581Z,42.33
2016-12-01T04:47:10.894Z,42.23
2016-12-01T04:47:43.218Z,42.43
2016-12-01T04:48:15.537Z,42.23
2016-12-01T04:48:47.848Z,42.43
2016-12-01T04:49:20.158Z,42.04
2016-12-01T04:49:52.477Z,42.23
2016-12-01T04:50:24.798Z,42.43
2016-12-01T04:50:57.133Z,42.21
2016-12-01T04:51:29.453Z,42.04
2016-12-01T04:52:01.765Z,42.23
2016-12-01T04:52:34.100Z,42.43
2016-12-01T04:53:06.423Z,42.23
2016-12-01T04:53:38.745Z,42.52
2016-12-01T04:54:11.054Z,42.52
2016-12-01T04:54:43.362Z,42.52
2016-12-01T04:55:15.663Z,42.43
2016-12-01T04:55:47.966Z,42.43
2016-12-01T04:56:20.296Z,42.52
2016-12-01T04:56:52.620Z,42.23
2016-12-01T04:57:24.942Z,42.43
2016-12-01T04:57:57.256Z,42.43
2016-12-01T04:58:29.590Z,42.23
2016-12-01T04:59:01.902Z,42.13
2016-12-01T04:59:34.215Z,42.43
2016-12-01T05:00:06.544Z,42.23
2016-12-01T05:00:38.864Z,42.23
2016-12-01T05:01:11.186Z,42.13
2016-12-01T05:01:43.507Z,42.13
2016-12-01T05:02:15.841Z,42.43
2016-12-01T05:02:48.158Z,42.13
2016-12-01T05:03:20.463Z,42.52
2016-12-01T05:03:52.780Z,42.23
2016-12-01T05:04:25.098Z,42.23
2016-12-01T05:04:57.411Z,42.23
2016-12-01T05:05:29.718Z,42.13
2016-12-01T05:06:02.027Z,42.43
2016-12-01T05:06:34.345Z,42.13
2016-12-01T05:07:06.671Z,42.13
2016-12-01T05:07:38.991Z,42.23
2016-12-01T05:08:12.510Z,42.23
2016-12-01T05:08:44.841Z,42.23
2016-12-01T05:09:17.165Z,42.23
2016-12-01T05:09:49.484Z,42.33
2016-12-01T05:10:21.805Z,42.52
2016-12-01T05:10:54.122Z,42.04
2016-12-01T05:11:26.443Z,42.43
2016-12-01T05:11:58.769Z,42.43
2016-12-01T05:12:31.096Z,42.04
2016-12-01T05:13:03.389Z,42.33
2016-12-01T05:13:35.705Z,42.43
2016-12-01T05:14:08.021Z,42.43
2016-12-01T05:14:40.343Z,42.33
2016-12-01T05:15:12.638Z,42.33
2016-12-01T05:15:44.952Z,42.43
2016-12-01T05:16:17.260Z,42.23
2016-12-01T05:16:49.578Z,42.13
2016-12-01T05:17:21.888Z,42.43
2016-12-01T05:17:54.212Z,42.33
2016-12-01T05:18:26.534Z,42.33
2016-12-01T05:18:58.849Z,42.23
2016-12-01T05:19:31.149Z,42.33
2016-12-01T05:20:03.489Z,42.23
2016-12-01T05:20:35.819Z,42.23
2016-12-01T05:21:08.123Z,42.23
2016-12-01T05:21:40.436Z,42.23
2016-12-01T05:22:12.762Z,42.33
2016-12-01T05:22:45.072Z,42.33
2016-12-01T05:23:17.390Z,42.33
2016-12-01T05:23:49.705Z,42.33
2016-12-01T05:24:22.037Z,42.23
2016-12-01T05:24:54.354Z,42.23
2016-12-01T05:25:26.679Z,42.33
2016-12-01T05:25:58.979Z,42.23
2016-12-01T05:26:31.291Z,42.23
2016-12-01T05:27:03.602Z,42.23
2016-12-01T05:27:35.920Z,42.33
2016-12-01T05:28:08.225Z,42.23
2016-12-01T05:28:40.552Z,42.23
2016-12-01T05:29:12.873Z,42.33
2016-12-01T05:29:45.215Z,42.23
2016-12-01T05:30:17.549Z,42.33
2016-12-01T05:30:49.869Z,42.43
2016-12-01T05:31:22.183Z,42.33
2016-12-01T05:31:54.501Z,42.33
2016-12-01T05:32:26.808Z,42.23
2016-12-01T05:32:59.127Z,42.33
2016-12-01T05:33:31.442Z,42.43
2016-12-01T05:34:03.755Z,42.33
2016-12-01T05:34:36.110Z,42.33
2016-12-01T05:35:08.424Z,42.43
2016-12-01T05:35:40.755Z,42.23
2016-12-01T05:36:13.067Z,42.33
2016-12-01T05:36:45.385Z,42.33
2016-12-01T05:37:17.698Z,42.33
2016-12-01T05:37:50.015Z,42.33
2016-12-01T05:38:22.322Z,42.43
2016-12-01T05:38:54.663Z,42.33
2016-12-01T05:39:26.990Z,42.5
2016-12-01T05:39:59.320Z,42.43
2016-12-01T05:40:31.651Z,42.33
2016-12-01T05:41:03.966Z,42.23
2016-12-01T05:41:36.374Z,42.43
2016-12-01T05:42:10.961Z,42.52
2016-12-01T05:42:43.272Z,42.3
2016-12-01T05:43:15.598Z,42.43
2016-12-01T05:43:47.919Z,42.5
2016-12-01T05:44:20.231Z,42.52
2016-12-01T05:44:52.556Z,42.6
2016-12-01T05:45:24.869Z,42.43
2016-12-01T05:45:57.196Z,42.4
2016-12-01T05:46:29.498Z,42.43
2016-12-01T05:47:01.822Z,42.33
2016-12-01T05:47:34.184Z,42.52
2016-12-01T05:48:06.505Z,42.61
2016-12-01T05:48:38.825Z,42.33
2016-12-01T05:49:11.165Z,42.52
2016-12-01T05:49:43.495Z,42.5
2016-12-01T05:50:15.816Z,42.52
2016-12-01T05:50:48.132Z,42.52
2016-12-01T05:51:20.433Z,42.52
2016-12-01T05:51:52.770Z,42.33
2016-12-01T05:52:25.090Z,42.52
2016-12-01T05:52:57.402Z,42.5
2016-12-01T05:53:29.705Z,42.52
2016-12-01T05:54:02.041Z,42.52
2016-12-01T05:54:34.360Z,42.33
2016-12-01T05:55:06.672Z,42.52
2016-12-01T05:55:38.988Z,42.52
2016-12-01T05:56:11.287Z,42.52
2016-12-01T05:56:43.609Z,42.43
2016-12-01T05:57:15.926Z,42.52
2016-12-01T05:57:48.227Z,42.43
2016-12-01T05:58:20.546Z,42.61
2016-12-01T05:58:52.855Z,42.43
2016-12-01T05:59:25.164Z,42.52
2016-12-01T05:59:57.495Z,42.61
2016-12-01T06:00:29.827Z,42.52
2016-12-01T06:01:02.130Z,42.52
2016-12-01T06:01:34.454Z,42.52
2016-12-01T06:02:06.789Z,42.61
2016-12-01T06:02:39.080Z,42.61
2016-12-01T06:03:11.408Z,42.6
2016-12-01T06:03:43.720Z,42.52
2016-12-01T06:04:16.028Z,42.52
2016-12-01T06:04:48.353Z,42.52
2016-12-01T06:05:20.663Z,42.5
2016-12-01T06:05:52.990Z,42.52
2016-12-01T06:06:25.316Z,42.61
2016-12-01T06:06:57.631Z,42.5
2016-12-01T06:07:29.955Z,42.52
2016-12-01T06:08:02.275Z,42.71
2016-12-01T06:08:34.575Z,42.52
2016-12-01T06:09:06.877Z,42.71
2016-12-01T06:09:39.187Z,42.61
2016-12-01T06:10:11.503Z,42.61
2016-12-01T06:10:43.852Z,42.61
2016-12-01T06:11:16.179Z,42.52
2016-12-01T06:11:48.482Z,42.6
2016-12-01T06:12:20.812Z,42.71
2016-12-01T06:12:53.146Z,42.6
2016-12-01T06:13:25.458Z,42.61
2016-12-01T06:13:57.772Z,42.69
2016-12-01T06:14:31.026Z,42.6
2016-12-01T06:15:04.380Z,42.5
2016-12-01T06:15:36.679Z,42.61
2016-12-01T06:16:09.026Z,42.6
2016-12-01T06:16:41.350Z,42.6
2016-12-01T06:17:13.680Z,42.69
2016-12-01T06:17:46.001Z,42.6
2016-12-01T06:18:18.348Z,42.81
2016-12-01T06:18:50.666Z,42.69
2016-12-01T06:19:22.973Z,42.61
2016-12-01T06:19:55.282Z,42.69
2016-12-01T06:20:27.599Z,42.71
2016-12-01T06:20:59.928Z,42.71
2016-12-01T06:21:32.250Z,42.71
2016-12-01T06:22:04.567Z,42.6
2016-12-01T06:22:36.867Z,42.5
2016-12-01T06:23:09.200Z,42.5
2016-12-01T06:23:41.709Z,42.43
2016-12-01T06:24:14.316Z,42.88
2016-12-01T06:24:46.626Z,42.4
2016-12-01T06:25:18.963Z,42.52
2016-12-01T06:25:51.307Z,42.4
2016-12-01T06:26:23.626Z,42.79
2016-12-01T06:26:55.941Z,42.79
2016-12-01T06:27:28.290Z,42.61
2016-12-01T06:28:00.593Z,42.6
2016-12-01T06:28:32.917Z,42.81
2016-12-01T06:29:05.227Z,42.98
2016-12-01T06:29:37.634Z,42.79
2016-12-01T06:30:09.945Z,42.88
2016-12-01T06:30:42.285Z,42.79
2016-12-01T06:31:14.603Z,42.4
2016-12-01T06:31:46.915Z,42.4
2016-12-01T06:32:19.271Z,42.79
2016-12-01T06:32:51.624Z,42.98
2016-12-01T06:33:26.381Z,42.79
2016-12-01T06:33:58.694Z,42.5
2016-12-01T06:34:31.047Z,42.81
2016-12-01T06:35:03.353Z,42.79
2016-12-01T06:35:35.665Z,42.88
2016-12-01T06:36:07.987Z,42.79
2016-12-01T06:36:40.317Z,42.6
2016-12-01T06:37:12.716Z,42.6
2016-12-01T06:37:45.027Z,42.69
2016-12-01T06:38:17.354Z,42.6
2016-12-01T06:38:49.727Z,42.6
2016-12-01T06:39:22.043Z,42.5
2016-12-01T06:39:54.370Z,42.6
2016-12-01T06:40:27.537Z,42.69
2016-12-01T06:41:00.314Z,42.5
2016-12-01T06:41:37.058Z,42.6
2016-12-01T06:42:12.573Z,42.6
2016-12-01T06:42:45.750Z,42.6
2016-12-01T06:43:18.513Z,42.5
2016-12-01T06:43:51.100Z,42.5
2016-12-01T06:44:23.681Z,42.5
2016-12-01T06:44:57.108Z,42.6
2016-12-01T06:45:31.545Z,42.79
2016-12-01T06:46:05.493Z,42.79
2016-12-01T06:46:38.968Z,42.6
2016-12-01T06:47:13.583Z,42.79
2016-12-01T06:47:47.268Z,42.79
2016-12-01T06:48:21.464Z,42.79
2016-12-01T06:48:55.005Z,42.69
2016-12-01T06:49:28.459Z,42.69
2016-12-01T06:50:01.858Z,42.88
2016-12-01T06:50:35.307Z,42.71
2016-12-01T06:51:08.762Z,42.88
2016-12-01T06:51:41.948Z,42.6
2016-12-01T06:52:15.340Z,42.61
2016-12-01T06:52:48.620Z,43
2016-12-01T06:53:22.223Z,42.71
2016-12-01T06:53:55.476Z,42.79
2016-12-01T06:54:28.506Z,42.69
2016-12-01T06:55:01.475Z,42.61
2016-12-01T06:55:34.835Z,42.79
2016-12-01T06:56:07.853Z,42.6
2016-12-01T06:56:40.289Z,42.79
2016-12-01T06:57:13.928Z,42.79
2016-12-01T06:57:46.249Z,42.88
2016-12-01T06:58:18.553Z,42.6